createdAt,value
2018-10-06T00:00:35.082Z,12.53
2018-10-06T00:03:04.318Z,11.50
2018-10-06T00:05:33.622Z,12.20
2018-10-06T00:08:02.902Z,12.03
2018-10-06T00:10:32.164Z,11.73
2018-10-06T00:13:01.369Z,12.97
2018-10-06T00:15:31.152Z,13.60
2018-10-06T00:18:00.373Z,11.60
2018-10-06T00:20:29.608Z,12.80
2018-10-06T00:22:58.791Z,12.20
2018-10-06T00:25:28.224Z,13.80
2018-10-06T00:27:57.431Z,13.60
2018-10-06T00:30:26.704Z,12.60
2018-10-06T00:32:55.941Z,14.00
2018-10-06T00:35:25.184Z,12.82
2018-10-06T00:37:54.397Z,12.43
2018-10-06T00:40:23.651Z,12.00
2018-10-06T00:42:52.872Z,12.17
2018-10-06T00:45:22.119Z,11.87
2018-10-06T00:47:51.309Z,11.43
2018-10-06T00:50:20.571Z,12.03
2018-10-06T00:52:49.827Z,12.50
2018-10-06T00:55:19.236Z,12.17
2018-10-06T00:57:48.466Z,11.80
2018-10-06T01:00:18.379Z,13.03
2018-10-06T01:02:47.612Z,12.60
2018-10-06T01:05:17.087Z,12.73
2018-10-06T01:07:46.311Z,12.23
2018-10-06T01:10:17.156Z,12.67
2018-10-06T01:12:46.340Z,12.57
2018-10-06T01:15:16.939Z,12.23
2018-10-06T01:17:46.202Z,11.70
2018-10-06T01:20:16.587Z,12.30
2018-10-06T01:22:45.802Z,11.90
2018-10-06T01:25:17.004Z,11.83
2018-10-06T01:27:46.221Z,11.23
2018-10-06T01:30:17.276Z,11.17
2018-10-06T01:32:46.558Z,10.73
2018-10-06T01:35:17.021Z,11.47
2018-10-06T01:37:46.243Z,11.73
2018-10-06T01:40:17.046Z,11.00
2018-10-06T01:42:46.267Z,12.20
2018-10-06T01:45:16.078Z,12.00
2018-10-06T01:47:45.324Z,12.73
2018-10-06T01:50:16.520Z,14.03
2018-10-06T01:52:45.760Z,14.10
2018-10-06T01:55:15.724Z,13.90
2018-10-06T01:57:45.011Z,12.82
2018-10-06T02:00:14.601Z,14.07
2018-10-06T02:02:43.780Z,13.40
2018-10-06T02:05:15.930Z,14.00
2018-10-06T02:07:45.177Z,13.13
2018-10-06T02:10:15.450Z,12.73
2018-10-06T02:12:44.680Z,13.10
2018-10-06T02:15:15.329Z,11.60
2018-10-06T02:17:44.525Z,11.83
2018-10-06T02:20:13.871Z,13.73
2018-10-06T02:22:43.050Z,12.63
2018-10-06T02:25:12.806Z,13.00
2018-10-06T02:27:42.001Z,15.20
2018-10-06T02:30:11.339Z,14.63
2018-10-06T02:32:40.461Z,14.87
2018-10-06T02:35:09.663Z,16.70
2018-10-06T02:37:38.866Z,16.00
2018-10-06T02:40:08.106Z,14.00
2018-10-06T02:42:37.363Z,14.90
2018-10-06T02:45:07.380Z,14.30
2018-10-06T02:47:36.579Z,14.33
2018-10-06T02:50:05.810Z,14.70
2018-10-06T02:52:35.005Z,13.47
2018-10-06T02:55:04.221Z,14.27
2018-10-06T02:57:33.403Z,13.33
2018-10-06T03:00:02.615Z,13.30
2018-10-06T03:02:31.815Z,13.13
2018-10-06T03:05:01.005Z,13.50
2018-10-06T03:07:30.251Z,13.90
2018-10-06T03:09:59.455Z,14.00
2018-10-06T03:12:28.678Z,18.10
2018-10-06T03:14:57.887Z,19.50
2018-10-06T03:17:27.149Z,20.80
2018-10-06T03:19:56.371Z,20.00
2018-10-06T03:22:25.594Z,20.37
2018-10-06T03:24:54.770Z,18.70
2018-10-06T03:27:23.965Z,17.60
2018-10-06T03:29:53.183Z,16.93
2018-10-06T03:32:22.359Z,17.03
2018-10-06T03:34:51.607Z,15.47
2018-10-06T03:37:20.863Z,13.57
2018-10-06T03:39:50.070Z,14.15
2018-10-06T03:42:19.252Z,13.50
2018-10-06T03:44:48.460Z,13.00
2018-10-06T03:47:17.860Z,13.47
2018-10-06T03:49:47.059Z,14.10
2018-10-06T03:52:16.580Z,15.30
2018-10-06T03:54:45.797Z,14.90
2018-10-06T03:57:15.580Z,15.90
2018-10-06T03:59:44.752Z,14.40
2018-10-06T04:02:14.588Z,14.60
2018-10-06T04:04:43.772Z,13.83
2018-10-06T04:07:13.631Z,13.83
2018-10-06T04:09:42.826Z,13.07
2018-10-06T04:12:11.995Z,12.47
2018-10-06T04:14:41.203Z,13.90
2018-10-06T04:17:10.674Z,13.90
2018-10-06T04:19:39.844Z,15.70
2018-10-06T04:22:09.064Z,16.35
2018-10-06T04:24:38.222Z,20.27
2018-10-06T04:27:07.437Z,19.02
2018-10-06T04:29:36.607Z,17.27
2018-10-06T04:32:05.815Z,16.53
2018-10-06T04:34:34.962Z,15.30
2018-10-06T04:37:04.176Z,13.80
2018-10-06T04:39:33.375Z,13.60
2018-10-06T04:42:02.580Z,11.53
2018-10-06T04:44:31.739Z,12.30
2018-10-06T04:47:00.976Z,13.07
2018-10-06T04:49:30.176Z,13.93
2018-10-06T04:51:59.378Z,14.20
2018-10-06T04:54:28.534Z,12.57
2018-10-06T04:56:57.716Z,14.90
2018-10-06T04:59:26.870Z,14.47
2018-10-06T05:01:56.081Z,15.27
2018-10-06T05:04:25.287Z,15.40
2018-10-06T05:06:54.517Z,15.83
2018-10-06T05:09:23.884Z,15.90
2018-10-06T05:11:53.121Z,14.77
2018-10-06T05:14:22.272Z,14.90
2018-10-06T05:16:52.353Z,14.43
2018-10-06T05:19:21.556Z,12.90
2018-10-06T05:21:50.740Z,12.80
2018-10-06T05:24:19.908Z,13.47
2018-10-06T05:26:49.134Z,13.97
2018-10-06T05:29:18.384Z,14.20
2018-10-06T05:31:47.663Z,12.68
2018-10-06T05:34:16.906Z,14.33
2018-10-06T05:36:46.093Z,12.50
2018-10-06T05:39:15.259Z,12.90
2018-10-06T05:41:44.487Z,13.80
2018-10-06T05:44:13.653Z,11.70
2018-10-06T05:46:42.931Z,12.60
2018-10-06T05:49:12.252Z,14.20
2018-10-06T05:51:41.440Z,12.57
2018-10-06T05:54:10.633Z,12.07
2018-10-06T05:56:39.830Z,13.83
2018-10-06T05:59:09.077Z,13.10
2018-10-06T06:01:39.062Z,14.70
2018-10-06T06:04:09.806Z,13.93
2018-10-06T06:06:39.030Z,13.07
2018-10-06T06:09:08.702Z,13.68
2018-10-06T06:11:37.940Z,13.17
2018-10-06T06:14:07.250Z,12.67
2018-10-06T06:16:36.519Z,12.00
2018-10-06T06:19:05.714Z,11.43
2018-10-06T06:21:34.950Z,11.65
2018-10-06T06:24:04.300Z,10.97
2018-10-06T06:26:33.510Z,9.70
2018-10-06T06:29:02.712Z,10.50
2018-10-06T06:31:31.967Z,10.53
2018-10-06T06:34:01.247Z,9.77
2018-10-06T06:36:30.659Z,9.90
2018-10-06T06:38:59.855Z,9.20
2018-10-06T06:41:29.107Z,9.53
2018-10-06T06:43:58.351Z,9.97
2018-10-06T06:46:27.541Z,10.77
2018-10-06T06:48:56.731Z,9.97
2018-10-06T06:51:25.948Z,8.57
2018-10-06T06:53:55.138Z,10.00
2018-10-06T06:56:24.691Z,8.90
2018-10-06T06:58:55.124Z,9.60
2018-10-06T07:01:24.471Z,9.48
2018-10-06T07:03:53.608Z,8.90
2018-10-06T07:06:22.823Z,10.10
2018-10-06T07:08:52.024Z,8.90
2018-10-06T07:11:21.415Z,9.93
2018-10-06T07:13:50.644Z,9.60
2018-10-06T07:16:19.863Z,9.57
2018-10-06T07:18:49.054Z,9.53
2018-10-06T07:21:18.340Z,10.00
2018-10-06T07:23:47.567Z,9.10
2018-10-06T07:26:17.035Z,9.63
2018-10-06T07:28:46.191Z,9.60
2018-10-06T07:31:15.437Z,9.40
2018-10-06T07:33:44.600Z,9.97
2018-10-06T07:36:14.169Z,9.45
2018-10-06T07:38:43.359Z,9.10
2018-10-06T07:41:12.565Z,8.73
2018-10-06T07:43:41.738Z,11.00
2018-10-06T07:46:10.951Z,10.23
2018-10-06T07:48:40.143Z,10.77
2018-10-06T07:51:39.234Z,11.43
2018-10-06T07:54:08.860Z,10.57
2018-10-06T07:56:38.110Z,10.40
2018-10-06T07:59:08.206Z,11.80
2018-10-06T08:01:38.169Z,12.60
2018-10-06T08:04:07.746Z,12.40
2018-10-06T08:06:36.956Z,12.70
2018-10-06T08:09:07.295Z,12.27
2018-10-06T08:11:36.608Z,12.27
2018-10-06T08:14:06.138Z,13.30
2018-10-06T08:16:36.075Z,12.93
2018-10-06T08:19:05.287Z,12.13
2018-10-06T08:21:34.506Z,11.97
2018-10-06T08:24:03.779Z,12.70
2018-10-06T08:26:33.031Z,12.20
2018-10-06T08:29:02.233Z,11.20
2018-10-06T08:31:31.457Z,12.00
2018-10-06T08:34:00.681Z,15.60
2018-10-06T08:36:30.297Z,13.93
2018-10-06T08:38:59.508Z,12.67
2018-10-06T08:41:29.106Z,13.80
2018-10-06T08:43:59.163Z,14.43
2018-10-06T08:46:28.471Z,14.73
2018-10-06T08:48:57.672Z,14.80
2018-10-06T08:51:26.927Z,16.90
2018-10-06T08:53:56.162Z,18.90
2018-10-06T08:56:25.552Z,16.70
2018-10-06T08:58:54.844Z,15.47
2018-10-06T09:01:24.711Z,14.27
2018-10-06T09:03:54.182Z,14.77
2018-10-06T09:06:23.383Z,14.30
2018-10-06T09:08:52.586Z,14.23
2018-10-06T09:11:21.794Z,13.53
2018-10-06T09:13:51.065Z,14.05
2018-10-06T09:16:20.407Z,25.70
2018-10-06T09:18:49.583Z,17.97
2018-10-06T09:21:18.886Z,15.40
2018-10-06T09:23:48.112Z,15.50
2018-10-06T09:26:17.412Z,13.60
2018-10-06T09:28:46.641Z,12.30
2018-10-06T09:31:15.820Z,12.33
2018-10-06T09:33:45.217Z,11.63
2018-10-06T09:36:14.571Z,13.20
2018-10-06T09:38:43.817Z,12.17
2018-10-06T09:41:13.102Z,13.90
2018-10-06T09:43:42.649Z,11.70
2018-10-06T09:46:12.300Z,11.07
2018-10-06T09:48:41.645Z,10.97
2018-10-06T09:51:11.000Z,10.70
2018-10-06T09:53:40.271Z,10.83
2018-10-06T09:56:10.004Z,9.97
2018-10-06T09:58:40.290Z,10.00
2018-10-06T10:01:19.350Z,9.38
2018-10-06T10:03:54.865Z,9.70
2018-10-06T10:06:24.700Z,8.25
2018-10-06T10:08:54.825Z,11.97
2018-10-06T10:11:25.309Z,8.50
2018-10-06T10:13:55.526Z,8.67
2018-10-06T10:16:26.073Z,8.47
2018-10-06T10:18:56.623Z,8.08
2018-10-06T10:21:28.083Z,8.65
2018-10-06T10:23:58.910Z,8.10
2018-10-06T10:26:29.037Z,7.50
2018-10-06T10:29:02.619Z,8.50
2018-10-06T10:31:33.165Z,7.40
2018-10-06T10:34:03.961Z,7.10
2018-10-06T10:36:34.718Z,6.80
2018-10-06T10:39:06.147Z,6.00
2018-10-06T10:41:36.600Z,7.13
2018-10-06T10:44:07.902Z,6.07
2018-10-06T10:46:38.394Z,5.93
2018-10-06T10:49:09.626Z,5.97
2018-10-06T10:51:39.914Z,5.50
2018-10-06T10:54:09.638Z,6.40
2018-10-06T10:56:38.822Z,5.93
2018-10-06T10:59:08.527Z,5.30
2018-10-06T11:01:37.766Z,4.47
2018-10-06T11:04:07.535Z,5.53
2018-10-06T11:06:36.772Z,4.00
2018-10-06T11:09:07.594Z,4.33
2018-10-06T11:11:37.048Z,4.30
2018-10-06T11:14:06.563Z,4.83
2018-10-06T11:16:35.725Z,4.80
2018-10-06T11:19:06.447Z,4.90
2018-10-06T11:21:37.204Z,5.13
2018-10-06T11:24:06.559Z,5.03
2018-10-06T11:26:35.842Z,5.60
2018-10-06T11:29:05.019Z,4.90
2018-10-06T11:31:34.277Z,5.40
2018-10-06T11:34:03.465Z,5.30
2018-10-06T11:36:32.659Z,5.13
2018-10-06T11:39:01.872Z,5.40
2018-10-06T11:41:31.096Z,5.40
2018-10-06T11:44:00.298Z,4.60
2018-10-06T11:46:30.284Z,4.90
2018-10-06T11:48:59.561Z,4.87
2018-10-06T11:51:28.767Z,4.60
2018-10-06T11:53:57.940Z,4.80
2018-10-06T11:56:27.347Z,4.33
2018-10-06T11:58:56.527Z,7.17
2018-10-06T12:01:25.737Z,6.17
2018-10-06T12:03:54.908Z,4.73
2018-10-06T12:06:24.226Z,5.20
2018-10-06T12:08:53.404Z,4.87
2018-10-06T12:11:22.631Z,4.95
2018-10-06T12:13:51.916Z,4.73
2018-10-06T12:16:21.138Z,5.43
2018-10-06T12:18:50.315Z,5.90
2018-10-06T12:21:19.552Z,4.70
2018-10-06T12:23:48.716Z,4.70
2018-10-06T12:26:17.976Z,4.90
2018-10-06T12:28:47.148Z,4.40
2018-10-06T12:31:16.384Z,4.30
2018-10-06T12:33:45.706Z,4.60
2018-10-06T12:36:14.892Z,4.70
2018-10-06T12:38:44.046Z,5.30
2018-10-06T12:41:13.246Z,4.30
2018-10-06T12:43:42.611Z,3.98
2018-10-06T12:46:11.841Z,4.50
2018-10-06T12:48:41.059Z,8.73
2018-10-06T12:51:10.648Z,4.93
2018-10-06T12:53:39.871Z,5.37
2018-10-06T12:56:09.618Z,5.03
2018-10-06T12:58:38.844Z,5.07
2018-10-06T13:01:08.561Z,4.77
2018-10-06T13:03:37.811Z,5.10
2018-10-06T13:06:07.293Z,4.83
2018-10-06T13:08:36.544Z,4.13
2018-10-06T13:11:05.781Z,5.60
2018-10-06T13:13:34.987Z,5.33
2018-10-06T13:16:04.206Z,5.83
2018-10-06T13:18:33.526Z,4.77
2018-10-06T13:21:02.723Z,5.80
2018-10-06T13:23:31.945Z,5.87
2018-10-06T13:26:01.150Z,5.77
2018-10-06T13:28:30.361Z,5.80
2018-10-06T13:30:59.544Z,5.50
2018-10-06T13:33:28.772Z,5.10
2018-10-06T13:35:58.236Z,6.03
2018-10-06T13:38:27.600Z,6.10
2018-10-06T13:40:56.823Z,5.43
2018-10-06T13:43:26.304Z,5.50
2018-10-06T13:45:55.520Z,5.00
2018-10-06T13:48:24.784Z,4.33
2018-10-06T13:50:53.972Z,4.50
2018-10-06T13:53:23.248Z,4.70
2018-10-06T13:55:52.536Z,4.30
2018-10-06T13:58:21.761Z,3.63
2018-10-06T14:00:51.149Z,4.23
2018-10-06T14:03:20.374Z,3.80
2018-10-06T14:05:49.616Z,4.00
2018-10-06T14:08:18.832Z,4.20
2018-10-06T14:10:48.003Z,4.43
2018-10-06T14:13:17.197Z,3.65
2018-10-06T14:15:46.415Z,3.72
2018-10-06T14:18:15.652Z,3.80
2018-10-06T14:20:44.850Z,3.93
2018-10-06T14:23:14.068Z,3.97
2018-10-06T14:25:43.300Z,3.93
2018-10-06T14:28:13.391Z,5.20
2018-10-06T14:30:42.633Z,4.57
2018-10-06T14:33:11.817Z,4.63
2018-10-06T14:35:41.015Z,4.70
2018-10-06T14:38:10.657Z,4.90
2018-10-06T14:40:39.906Z,3.87
2018-10-06T14:43:09.531Z,4.03
2018-10-06T14:45:38.771Z,4.60
2018-10-06T14:48:08.255Z,4.50
2018-10-06T14:50:37.448Z,4.30
2018-10-06T14:53:06.899Z,4.28
2018-10-06T14:55:36.060Z,3.93
2018-10-06T14:58:05.420Z,3.77
2018-10-06T15:00:34.648Z,3.57
2018-10-06T15:03:03.847Z,4.93
2018-10-06T15:05:33.052Z,4.42
2018-10-06T15:08:02.263Z,5.57
2018-10-06T15:10:31.472Z,5.10
2018-10-06T15:13:00.651Z,4.17
2018-10-06T15:15:29.865Z,6.10
2018-10-06T15:17:59.056Z,4.20
2018-10-06T15:20:28.282Z,3.77
2018-10-06T15:22:57.487Z,4.03
2018-10-06T15:25:26.676Z,3.62
2018-10-06T15:27:55.911Z,4.23
2018-10-06T15:30:25.195Z,4.10
2018-10-06T15:32:54.424Z,3.85
2018-10-06T15:35:23.647Z,4.00
2018-10-06T15:37:52.891Z,3.90
2018-10-06T15:40:22.101Z,4.10
2018-10-06T15:42:51.339Z,6.77
2018-10-06T15:45:20.548Z,4.07
2018-10-06T15:47:49.861Z,4.20
2018-10-06T15:50:19.019Z,4.30
2018-10-06T15:52:48.242Z,4.57
2018-10-06T15:55:17.495Z,4.23
2018-10-06T15:57:46.721Z,4.60
2018-10-06T16:00:15.953Z,4.20
2018-10-06T16:02:45.173Z,4.20
2018-10-06T16:05:14.380Z,4.40
2018-10-06T16:07:43.608Z,4.67
2018-10-06T16:10:12.863Z,4.77
2018-10-06T16:12:42.060Z,5.20
2018-10-06T16:15:11.553Z,5.00
2018-10-06T16:17:40.763Z,5.37
2018-10-06T16:20:10.810Z,5.97
2018-10-06T16:22:40.035Z,6.20
2018-10-06T16:25:10.113Z,5.87
2018-10-06T16:27:39.366Z,5.93
2018-10-06T16:30:10.003Z,11.60
2018-10-06T16:32:39.227Z,6.27
2018-10-06T16:35:08.598Z,5.50
2018-10-06T16:37:37.799Z,5.07
2018-10-06T16:40:07.906Z,5.20
2018-10-06T16:42:37.090Z,5.20
2018-10-06T16:45:06.356Z,5.50
2018-10-06T16:47:35.567Z,5.37
2018-10-06T16:50:04.832Z,6.27
2018-10-06T16:52:34.023Z,5.43
2018-10-06T16:55:03.220Z,5.03
2018-10-06T16:57:32.398Z,6.70
2018-10-06T17:00:01.763Z,7.03
2018-10-06T17:02:30.932Z,5.90
2018-10-06T17:05:00.113Z,6.50
2018-10-06T17:07:29.297Z,5.62
2018-10-06T17:09:58.486Z,6.13
2018-10-06T17:12:27.695Z,6.70
2018-10-06T17:14:56.909Z,6.60
2018-10-06T17:17:26.067Z,6.17
2018-10-06T17:19:55.266Z,6.90
2018-10-06T17:22:24.638Z,6.08
2018-10-06T17:24:53.814Z,6.53
2018-10-06T17:27:23.023Z,5.72
2018-10-06T17:29:52.144Z,6.30
2018-10-06T17:32:21.316Z,6.17
2018-10-06T17:34:50.499Z,6.62
2018-10-06T17:37:19.697Z,5.80
2018-10-06T17:39:48.897Z,5.50
2018-10-06T17:42:18.131Z,5.90
2018-10-06T17:44:47.383Z,5.47
2018-10-06T17:47:16.604Z,5.60
2018-10-06T17:49:45.872Z,6.63
2018-10-06T17:52:15.869Z,6.20
2018-10-06T17:54:45.037Z,5.85
2018-10-06T17:57:15.077Z,5.53
2018-10-06T17:59:44.220Z,5.90
2018-10-06T18:02:13.541Z,5.23
2018-10-06T18:04:42.758Z,6.60
2018-10-06T18:07:12.444Z,6.10
2018-10-06T18:09:41.583Z,5.37
2018-10-06T18:12:10.820Z,4.80
2018-10-06T18:14:39.992Z,5.80
2018-10-06T18:17:09.175Z,5.43
2018-10-06T18:19:38.605Z,7.13
2018-10-06T18:22:07.812Z,8.10
2018-10-06T18:24:36.993Z,6.07
2018-10-06T18:27:06.246Z,5.27
2018-10-06T18:29:35.458Z,6.87
2018-10-06T18:32:04.865Z,9.20
2018-10-06T18:34:34.065Z,9.40
2018-10-06T18:37:03.337Z,6.30
2018-10-06T18:39:32.451Z,5.87
2018-10-06T18:42:01.688Z,6.80
2018-10-06T18:44:30.878Z,6.77
2018-10-06T18:47:00.088Z,6.10
2018-10-06T18:49:29.230Z,6.13
2018-10-06T18:51:58.414Z,6.73
2018-10-06T18:54:27.566Z,6.63
2018-10-06T18:56:56.744Z,6.20
2018-10-06T18:59:25.895Z,7.20
2018-10-06T19:01:55.115Z,7.53
2018-10-06T19:04:24.762Z,6.70
2018-10-06T19:06:53.802Z,5.87
2018-10-06T19:09:23.091Z,6.70
2018-10-06T19:11:52.297Z,5.60
2018-10-06T19:14:21.695Z,6.22
2018-10-06T19:16:50.880Z,6.07
2018-10-06T19:19:20.041Z,4.87
2018-10-06T19:21:49.308Z,6.62
2018-10-06T19:24:18.441Z,8.60
2018-10-06T19:26:47.728Z,9.33
2018-10-06T19:29:16.933Z,6.30
2018-10-06T19:31:46.142Z,6.57
2018-10-06T19:34:15.676Z,6.20
2018-10-06T19:36:44.900Z,5.57
2018-10-06T19:39:14.785Z,5.90
2018-10-06T19:41:44.032Z,6.13
2018-10-06T19:44:13.201Z,5.57
2018-10-06T19:46:42.444Z,5.57
2018-10-06T19:49:12.260Z,5.47
2018-10-06T19:51:41.605Z,6.47
2018-10-06T19:54:10.668Z,6.10
2018-10-06T19:56:39.895Z,5.83
2018-10-06T19:59:09.048Z,5.40
2018-10-06T20:01:38.795Z,5.17
2018-10-06T20:04:08.089Z,8.23
2018-10-06T20:06:37.307Z,6.90
2018-10-06T20:09:08.419Z,5.95
2018-10-06T20:11:38.140Z,5.30
2018-10-06T20:14:07.639Z,6.57
2018-10-06T20:16:36.900Z,6.10
2018-10-06T20:19:06.153Z,6.37
2018-10-06T20:21:35.341Z,5.90
2018-10-06T20:24:04.522Z,6.63
2018-10-06T20:26:33.735Z,7.23
2018-10-06T20:29:02.914Z,6.65
2018-10-06T20:31:32.132Z,10.10
2018-10-06T20:34:01.316Z,9.80
2018-10-06T20:36:30.642Z,8.73
2018-10-06T20:38:59.843Z,9.27
2018-10-06T20:41:29.088Z,9.50
2018-10-06T20:43:58.256Z,9.37
2018-10-06T20:46:27.561Z,9.80
2018-10-06T20:48:56.739Z,9.57
2018-10-06T20:51:25.968Z,10.77
2018-10-06T20:53:55.176Z,9.83
2018-10-06T20:56:24.427Z,10.73
2018-10-06T20:58:53.665Z,12.03
2018-10-06T21:01:22.911Z,11.90
2018-10-06T21:03:52.123Z,13.30
2018-10-06T21:06:21.339Z,14.28
2018-10-06T21:08:50.540Z,13.17
2018-10-06T21:11:19.814Z,13.73
2018-10-06T21:13:49.046Z,12.47
2018-10-06T21:16:18.363Z,12.57
2018-10-06T21:18:47.569Z,12.60
2018-10-06T21:21:16.764Z,12.43
2018-10-06T21:23:45.969Z,12.07
2018-10-06T21:26:15.739Z,11.70
2018-10-06T21:28:45.034Z,10.90
2018-10-06T21:31:14.737Z,11.80
2018-10-06T21:33:43.963Z,10.87
2018-10-06T21:36:13.555Z,11.83
2018-10-06T21:38:42.850Z,11.47
2018-10-06T21:41:12.297Z,11.00
2018-10-06T21:43:41.516Z,12.30
2018-10-06T21:46:10.730Z,11.40
2018-10-06T21:48:39.927Z,11.40
2018-10-06T21:51:09.168Z,11.57
2018-10-06T21:53:38.389Z,11.87
2018-10-06T21:56:07.585Z,13.17
2018-10-06T21:58:36.787Z,12.00
2018-10-06T22:01:12.244Z,11.77
2018-10-06T22:03:41.874Z,11.80
2018-10-06T22:06:11.199Z,11.20
2018-10-06T22:08:40.873Z,11.90
2018-10-06T22:11:10.084Z,12.60
2018-10-06T22:13:39.269Z,11.10
2018-10-06T22:16:09.182Z,11.80
2018-10-06T22:18:38.571Z,12.30
2018-10-06T22:21:07.766Z,12.30
2018-10-06T22:23:36.990Z,11.40
2018-10-06T22:26:06.243Z,11.23
2018-10-06T22:28:35.408Z,11.50
2018-10-06T22:31:04.715Z,11.60
2018-10-06T22:33:33.992Z,12.07
2018-10-06T22:36:03.239Z,11.60
2018-10-06T22:38:32.412Z,11.97
2018-10-06T22:41:01.641Z,11.70
2018-10-06T22:43:30.942Z,12.13
2018-10-06T22:46:00.207Z,13.03
2018-10-06T22:48:29.512Z,12.53
2018-10-06T22:50:58.731Z,14.13
2018-10-06T22:53:27.939Z,13.17
2018-10-06T22:55:57.194Z,12.13
2018-10-06T22:58:26.403Z,12.40
2018-10-06T23:00:55.666Z,12.27
2018-10-06T23:03:24.892Z,11.28
2018-10-06T23:05:54.132Z,13.07
2018-10-06T23:08:26.141Z,11.87
2018-10-06T23:10:55.423Z,12.10
2018-10-06T23:13:24.646Z,11.47
2018-10-06T23:15:53.867Z,12.60
2018-10-06T23:18:23.095Z,11.60
2018-10-06T23:20:52.345Z,11.95
2018-10-06T23:23:21.539Z,12.60
2018-10-06T23:25:50.744Z,11.37
2018-10-06T23:28:19.934Z,11.47
2018-10-06T23:30:49.170Z,13.20
2018-10-06T23:33:18.360Z,12.03
2018-10-06T23:35:48.146Z,11.00
2018-10-06T23:38:20.486Z,13.53
2018-10-06T23:40:49.839Z,12.40
2018-10-06T23:43:19.029Z,11.63
2018-10-06T23:45:48.241Z,11.77
2018-10-06T23:48:18.797Z,11.80
2018-10-06T23:50:48.060Z,12.15
2018-10-06T23:53:17.411Z,12.10
2018-10-06T23:55:47.703Z,12.37
2018-10-06T23:58:16.995Z,11.13
